Time;durP1;ratioP1;P1;durP2;ratioP2;P2;SDS_P1;SDS_P2;PMS_P1;PMS_P2;Temp;Humidity;BMP_temperature;BMP_pressure;BME280_temperature;BME280_humidity;BME280_pressure;Samples;Min_cycle;Max_cycle;Signal;HPM_P1;HPM_P2
2021/03/23 00:02:58;;;;;;;;;69.60;52.60;;;;;8.03;43.49;99032.50;6132259;28;126414;-56
2021/03/23 00:06:00;;;;;;;;;67.00;52.00;;;;;8.07;43.40;99023.00;6132547;28;127031;-56
2021/03/23 00:09:05;;;;;;;;;67.80;52.40;;;;;8.07;43.38;99012.25;6143943;28;124347;-56
2021/03/23 00:12:06;;;;;;;;;68.60;51.80;;;;;8.09;43.25;99013.72;6139688;28;124873;-56
2021/03/23 00:15:10;;;;;;;;;66.00;51.00;;;;;8.16;43.33;99008.38;6133258;28;125197;-56
2021/03/23 00:18:12;;;;;;;;;68.00;52.00;;;;;8.21;43.15;99011.25;6140238;28;125564;-56
2021/03/23 00:21:14;;;;;;;;;69.00;52.00;;;;;8.08;43.00;98976.34;6146114;28;126751;-56
2021/03/23 00:24:16;;;;;;;;;67.75;51.75;;;;;8.23;43.06;99003.84;6160505;28;127043;-56
2021/03/23 00:27:17;;;;;;;;;68.00;52.50;;;;;8.15;43.32;99004.88;6159890;28;125355;-56
2021/03/23 00:30:19;;;;;;;;;64.00;50.60;;;;;8.10;43.47;99006.50;6143698;28;126216;-56
2021/03/23 00:33:22;;;;;;;;;66.40;51.00;;;;;8.22;43.05;99002.19;6154068;28;125633;-56
2021/03/23 00:36:27;;;;;;;;;65.00;51.00;;;;;8.23;42.80;99007.34;6159457;28;125064;-56
2021/03/23 00:39:29;;;;;;;;;65.40;51.20;;;;;8.31;42.96;99014.41;6152036;28;126028;-56
2021/03/23 00:42:31;;;;;;;;;68.00;52.00;;;;;8.28;43.14;99009.44;6153542;28;127692;-56
2021/03/23 00:45:38;;;;;;;;;67.50;51.75;;;;;8.28;43.06;99001.38;6158438;28;124936;-56
2021/03/23 00:48:39;;;;;;;;;66.60;51.00;;;;;8.35;42.96;99004.94;6138906;28;125795;-56
2021/03/23 00:51:41;;;;;;;;;68.00;53.00;;;;;8.34;43.07;98999.75;6150810;28;127015;-56
2021/03/23 00:54:44;;;;;;;;;70.00;52.75;;;;;8.38;42.99;99007.19;6158235;28;125034;-56
2021/03/23 00:57:45;;;;;;;;;67.00;51.00;;;;;8.36;43.32;99006.56;6160153;28;125277;-56
2021/03/23 01:00:46;;;;;;;;;69.50;52.00;;;;;8.45;42.77;99000.00;6159622;28;126672;-56
2021/03/23 01:03:48;;;;;;;;;69.40;52.00;;;;;8.32;43.23;99005.31;6158876;28;125498;-56
2021/03/23 01:06:50;;;;;;;;;69.20;52.80;;;;;8.28;43.37;98998.69;6136505;28;127391;-56
2021/03/23 01:09:51;;;;;;;;;67.75;52.00;;;;;8.21;43.70;99001.34;6145217;28;126705;-56
2021/03/23 01:12:54;;;;;;;;;69.00;54.00;;;;;8.27;43.39;98991.66;6160449;28;126644;-56
2021/03/23 01:15:55;;;;;;;;;69.00;53.00;;;;;8.24;43.60;98992.91;6158971;28;126399;-56
2021/03/23 01:18:57;;;;;;;;;69.20;52.00;;;;;7.84;43.84;98924.88;6148752;28;124873;-56
2021/03/23 01:21:59;;;;;;;;;67.40;52.00;;;;;8.18;43.90;98998.25;6154022;28;125383;-55
2021/03/23 01:25:09;;;;;;;;;64.60;50.00;;;;;8.09;44.16;98997.63;6148242;28;126172;-56
2021/03/23 01:28:11;;;;;;;;;70.00;53.00;;;;;8.13;44.10;98988.13;6135231;28;125074;-56
2021/03/23 01:31:12;;;;;;;;;66.25;52.00;;;;;8.07;44.27;98996.97;6156871;28;127236;-56
2021/03/23 01:34:14;;;;;;;;;67.50;52.50;;;;;7.80;44.30;98950.47;6157744;28;126259;-56
2021/03/23 01:37:16;;;;;;;;;66.25;51.50;;;;;7.92;44.63;98993.63;6134935;28;125803;-56
2021/03/23 01:40:21;;;;;;;;;70.00;53.00;;;;;8.02;44.56;98993.25;6147084;28;127620;-55
2021/03/23 01:43:34;;;;;;;;;65.60;52.00;;;;;7.96;44.77;99002.13;6155688;28;126674;-56
2021/03/23 01:46:39;;;;;;;;;67.00;52.00;;;;;7.95;44.48;98995.94;6158375;28;127007;-56
2021/03/23 01:49:46;;;;;;;;;67.00;51.50;;;;;8.01;44.45;99008.56;6155288;28;126436;-56
2021/03/23 01:52:57;;;;;;;;;64.20;50.80;;;;;8.08;44.54;99005.88;6134821;28;126456;-56
2021/03/23 01:55:58;;;;;;;;;67.20;51.00;;;;;8.06;44.60;99000.69;6150228;28;126067;-56
2021/03/23 01:59:02;;;;;;;;;67.00;51.00;;;;;8.05;44.47;98998.22;6158281;28;126606;-56
2021/03/23 02:02:04;;;;;;;;;65.40;51.00;;;;;8.13;44.39;98998.88;6149835;28;126137;-56
2021/03/23 02:05:11;;;;;;;;;64.60;50.00;;;;;8.09;44.35;99004.84;6147925;28;126458;-56
2021/03/23 02:08:12;;;;;;;;;64.00;50.00;;;;;8.11;44.45;98995.53;6156804;28;126290;-56
2021/03/23 02:11:14;;;;;;;;;62.00;50.00;;;;;7.99;44.79;98988.28;6157424;28;126592;-56
2021/03/23 02:14:16;;;;;;;;;62.75;48.00;;;;;8.04;44.63;98983.97;6157466;28;127894;-56
2021/03/23 02:17:21;;;;;;;;;61.60;48.00;;;;;8.11;44.45;98987.47;6147246;28;124487;-56
2021/03/23 02:20:24;;;;;;;;;61.00;46.50;;;;;8.13;44.37;98982.75;6150558;28;125900;-56
2021/03/23 02:23:29;;;;;;;;;58.60;47.60;;;;;8.16;44.35;98986.91;6151983;28;126088;-56
2021/03/23 02:26:34;;;;;;;;;58.00;46.00;;;;;8.22;44.18;98983.38;6154744;28;125283;-56
2021/03/23 02:29:35;;;;;;;;;60.40;48.00;;;;;8.23;44.04;98982.34;6158078;28;124908;-56
2021/03/23 02:32:37;;;;;;;;;55.60;43.60;;;;;8.27;43.93;98972.84;6147188;28;125446;-56
2021/03/23 02:35:48;;;;;;;;;57.00;44.20;;;;;8.24;44.15;98984.84;6144449;28;126413;-56
2021/03/23 02:38:50;;;;;;;;;57.00;45.00;;;;;8.22;44.07;98978.00;6136587;28;125092;-56
2021/03/23 02:41:51;;;;;;;;;50.00;41.80;;;;;8.39;43.77;98968.56;6153291;28;125410;-56
2021/03/23 02:44:53;;;;;;;;;55.50;44.00;;;;;8.36;43.78;98974.34;6143323;28;126619;-56
2021/03/23 02:47:54;;;;;;;;;57.00;46.00;;;;;8.48;43.54;98966.50;6151545;28;125302;-56
2021/03/23 02:50:57;;;;;;;;;57.00;45.00;;;;;8.43;43.78;98968.97;6134299;28;124965;-56
2021/03/23 02:53:58;;;;;;;;;52.00;43.00;;;;;8.47;43.58;98962.97;6134823;28;126276;-56
2021/03/23 02:57:00;;;;;;;;;57.60;46.00;;;;;8.49;43.66;98970.84;6154570;28;124904;-56
2021/03/23 03:00:06;;;;;;;;;60.20;46.00;;;;;8.47;43.52;98970.22;6145887;28;124892;-56
2021/03/23 03:03:07;;;;;;;;;52.25;43.75;;;;;8.47;43.60;98979.09;6157410;28;126092;-56
2021/03/23 03:06:25;;;;;;;;;53.80;43.80;;;;;8.41;43.68;98971.03;6157969;28;123992;-56
2021/03/23 03:09:26;;;;;;;;;57.00;44.40;;;;;8.51;43.42;98972.28;6154356;28;127116;-56
2021/03/23 03:12:28;;;;;;;;;53.40;44.00;;;;;8.41;43.66;98966.47;6152152;28;126496;-56
2021/03/23 03:15:30;;;;;;;;;51.60;42.60;;;;;8.42;43.47;98968.16;6146081;28;127652;-56
2021/03/23 03:18:32;;;;;;;;;58.00;44.00;;;;;8.44;43.38;98965.25;6145795;28;125345;-56
2021/03/23 03:21:34;;;;;;;;;54.20;43.00;;;;;8.40;43.48;98966.72;6143240;28;126133;-56
2021/03/23 03:24:35;;;;;;;;;53.20;44.00;;;;;8.39;43.50;98965.06;6157351;28;127600;-56
2021/03/23 03:27:37;;;;;;;;;55.00;43.60;;;;;8.30;43.11;98967.13;6156895;28;128284;-56
2021/03/23 03:30:40;;;;;;;;;53.40;44.00;;;;;8.45;43.31;98977.66;6152083;28;126242;-56
2021/03/23 03:33:45;;;;;;;;;56.00;44.00;;;;;8.57;42.79;98967.94;6134862;28;125454;-56
2021/03/23 03:36:50;;;;;;;;;53.50;42.75;;;;;8.66;42.77;98975.59;6136129;28;126419;-56
2021/03/23 03:39:51;;;;;;;;;52.00;42.00;;;;;8.50;42.46;98953.69;6132057;28;125698;-56
2021/03/23 03:42:53;;;;;;;;;52.00;40.00;;;;;8.43;42.46;98916.06;6149118;28;124419;-56
2021/03/23 03:45:55;;;;;;;;;50.00;40.60;;;;;8.59;42.24;98941.69;6131687;28;126508;-56
2021/03/23 03:48:57;;;;;;;;;51.00;40.00;;;;;8.76;42.00;98959.03;6153557;28;128138;-56
2021/03/23 03:51:58;;;;;;;;;50.00;41.40;;;;;8.73;42.11;98955.97;6140711;28;125173;-56
2021/03/23 03:55:00;;;;;;;;;51.00;41.00;;;;;8.75;41.84;98953.91;6137751;28;126609;-56
2021/03/23 03:58:04;;;;;;;;;51.00;41.00;;;;;8.48;42.17;98915.44;6137258;28;125741;-56
2021/03/23 04:01:05;;;;;;;;;50.00;41.00;;;;;8.69;42.04;98955.56;6142282;28;126366;-56
2021/03/23 04:04:07;;;;;;;;;47.80;39.00;;;;;8.67;41.96;98962.97;6161133;28;128326;-56
2021/03/23 04:07:14;;;;;;;;;52.50;42.50;;;;;8.69;42.08;98952.88;6141788;28;125735;-56
2021/03/23 04:10:17;;;;;;;;;48.80;39.20;;;;;8.67;42.03;98961.13;6147254;28;125348;-56
2021/03/23 04:13:20;;;;;;;;;49.60;40.00;;;;;8.67;42.04;98963.81;6161187;28;126192;-56
2021/03/23 04:16:21;;;;;;;;;49.00;39.00;;;;;8.58;41.86;98940.03;6146488;28;126538;-56
2021/03/23 04:19:23;;;;;;;;;49.00;40.00;;;;;8.77;41.93;98966.06;6136586;28;126695;-56
2021/03/23 04:22:24;;;;;;;;;49.00;40.00;;;;;8.81;41.48;98975.38;6159251;28;125259;-56
2021/03/23 04:25:31;;;;;;;;;48.00;39.00;;;;;8.83;41.53;98983.25;6155932;28;124191;-56
2021/03/23 04:28:33;;;;;;;;;49.80;39.40;;;;;8.85;41.43;98970.41;6138617;28;124727;-56
2021/03/23 04:31:37;;;;;;;;;50.60;40.00;;;;;8.79;41.43;98974.78;6149991;28;126519;-56
2021/03/23 04:34:39;;;;;;;;;47.00;38.00;;;;;8.91;41.00;98969.56;6162420;28;124764;-56
2021/03/23 04:37:40;;;;;;;;;46.50;37.50;;;;;8.91;41.05;98970.41;6162473;28;126982;-56
2021/03/23 04:40:42;;;;;;;;;46.80;38.00;;;;;8.69;40.62;98942.94;6155817;28;127652;-56
2021/03/23 04:43:48;;;;;;;;;47.40;38.00;;;;;8.72;40.74;98943.53;6162374;28;125044;-56
2021/03/23 04:46:49;;;;;;;;;45.25;37.25;;;;;8.95;40.77;98982.38;6144171;28;127121;-56
2021/03/23 04:49:51;;;;;;;;;45.00;36.00;;;;;8.99;40.60;98980.13;6154574;28;125264;-56
2021/03/23 04:52:52;;;;;;;;;47.00;38.00;;;;;9.09;40.60;98981.31;6159442;28;127245;-56
2021/03/23 04:55:55;;;;;;;;;44.25;37.25;;;;;9.01;40.50;98975.34;6161599;28;126622;-56
2021/03/23 04:58:56;;;;;;;;;45.00;36.00;;;;;9.11;40.35;98979.28;6145919;28;126348;-57
2021/03/23 05:01:58;;;;;;;;;44.50;36.75;;;;;9.03;40.59;98978.66;6151927;28;126677;-56
2021/03/23 05:05:00;;;;;;;;;44.00;35.00;;;;;8.86;40.56;98961.31;6155879;28;125233;-56
2021/03/23 05:08:01;;;;;;;;;43.60;36.20;;;;;8.90;40.43;98959.84;6152268;28;125431;-56
2021/03/23 05:11:05;;;;;;;;;43.00;36.00;;;;;9.05;40.56;98984.66;6150505;28;125365;-56
2021/03/23 05:14:07;;;;;;;;;45.00;36.00;;;;;9.12;40.35;98986.31;6155848;28;127091;-56
2021/03/23 05:17:09;;;;;;;;;41.50;35.00;;;;;9.08;40.39;98981.56;6157284;28;125095;-56
2021/03/23 05:20:12;;;;;;;;;47.00;38.00;;;;;9.06;40.39;98983.63;6140896;28;125475;-56
2021/03/23 05:23:14;;;;;;;;;42.00;35.80;;;;;8.85;40.70;98965.84;6137305;28;127314;-56
2021/03/23 05:27:08;;;;;;;;;40.00;35.00;;;;;9.03;40.44;98986.75;6146211;28;125316;-56
2021/03/23 05:30:47;;;;;;;;;42.40;33.40;;;;;9.02;40.62;98988.59;6154509;28;96781;-56
2021/03/23 05:33:51;;;;;;;;;42.00;36.00;;;;;9.01;40.57;98988.81;6159872;28;126348;-56
2021/03/23 05:36:53;;;;;;;;;45.00;36.00;;;;;8.68;40.64;98943.16;6152057;28;127125;-56
2021/03/23 05:39:54;;;;;;;;;45.40;35.40;;;;;9.07;40.52;98998.72;6136209;28;126671;-56
2021/03/23 05:43:26;;;;;;;;;46.00;37.00;;;;;9.04;40.78;98986.50;6137005;28;127476;-56
2021/03/23 05:46:36;;;;;;;;;45.00;36.00;;;;;9.00;40.48;98985.28;6137176;28;124953;-56
2021/03/23 05:49:51;;;;;;;;;41.00;34.60;;;;;9.06;40.39;99000.59;6136281;28;127398;-56
2021/03/23 05:53:03;;;;;;;;;45.00;36.00;;;;;9.07;40.61;98977.22;6136655;28;124605;-56
2021/03/23 05:56:06;;;;;;;;;40.00;35.00;;;;;9.27;40.29;98999.53;6135128;28;125138;-56
2021/03/23 05:59:27;;;;;;;;;38.00;33.20;;;;;9.41;39.95;99001.13;6136685;28;126341;-56
2021/03/23 06:02:53;;;;;;;;;39.40;34.00;;;;;9.42;39.92;99010.88;6137543;28;127188;-56
2021/03/23 06:06:22;;;;;;;;;42.00;34.50;;;;;9.48;39.52;99003.81;6136391;28;127100;-56
2021/03/23 06:09:30;;;;;;;;;38.00;33.00;;;;;9.56;40.00;99014.34;6150841;28;126835;-56
2021/03/23 06:12:47;;;;;;;;;43.00;35.00;;;;;9.69;39.48;99016.16;6151147;28;126681;-56
2021/03/23 06:16:20;;;;;;;;;39.50;33.00;;;;;9.69;39.47;99016.97;6138867;28;126925;-56
2021/03/23 06:19:46;;;;;;;;;41.40;34.00;;;;;9.51;39.17;98958.47;6138775;28;125933;-56
2021/03/23 06:23:06;;;;;;;;;39.50;33.00;;;;;9.86;39.00;99009.25;6146537;28;125898;-56
2021/03/23 06:26:28;;;;;;;;;42.00;35.00;;;;;10.04;38.73;99008.53;6150439;28;124763;-56
2021/03/23 06:29:38;;;;;;;;;39.20;32.80;;;;;10.13;38.36;99008.06;6156990;28;124088;-56
2021/03/23 06:32:55;;;;;;;;;40.50;33.00;;;;;10.22;38.31;99014.06;6159967;28;126140;-56
2021/03/23 06:36:03;;;;;;;;;34.40;32.00;;;;;10.39;39.70;99021.44;6155369;28;127524;-57
2021/03/23 06:39:09;;;;;;;;;45.50;34.00;;;;;10.41;37.57;99002.31;6146043;28;126977;-56
2021/03/23 06:42:10;;;;;;;;;40.80;34.60;;;;;10.54;37.30;99004.13;6164823;28;127149;-56
2021/03/23 06:45:36;;;;;;;;;37.00;32.00;;;;;10.70;37.30;99017.88;6181707;28;125284;-56
2021/03/23 06:48:37;;;;;;;;;39.60;33.40;;;;;10.74;37.20;99018.28;6160447;28;126171;-56
2021/03/23 06:52:11;;;;;;;;;40.80;34.20;;;;;10.70;36.56;99022.47;6161797;28;127098;-56
2021/03/23 06:55:22;;;;;;;;;38.00;32.80;;;;;10.80;36.45;99018.22;6156643;28;127022;-57
2021/03/23 06:58:29;;;;;;;;;32.60;29.60;;;;;10.83;36.17;99019.66;6156865;28;126045;-56
2021/03/23 07:01:41;;;;;;;;;35.40;30.00;;;;;10.76;36.02;99021.56;6161771;28;127866;-56
2021/03/23 07:04:43;;;;;;;;;35.60;32.00;;;;;10.94;36.12;99018.94;6168626;28;126535;-56
2021/03/23 07:08:00;;;;;;;;;37.00;33.00;;;;;10.73;35.70;98987.78;6157222;28;126663;-56
2021/03/23 07:11:06;;;;;;;;;38.00;32.60;;;;;11.01;35.85;99008.91;6156819;28;126901;-56
2021/03/23 07:14:22;;;;;;;;;38.00;33.00;;;;;11.11;35.64;99003.84;6139888;28;125641;-56
2021/03/23 07:17:29;;;;;;;;;34.75;30.00;;;;;11.24;35.48;99002.88;6155276;28;126010;-56
2021/03/23 07:20:35;;;;;;;;;38.40;32.00;;;;;11.30;35.32;99007.38;6155719;28;125691;-56
2021/03/23 07:23:40;;;;;;;;;36.40;32.00;;;;;11.29;35.29;99009.25;6153004;28;123849;-57
2021/03/23 07:26:58;;;;;;;;;39.60;33.00;;;;;10.65;35.10;98893.69;6176993;28;128384;-57
2021/03/23 07:30:30;;;;;;;;;37.80;32.80;;;;;11.47;35.17;99016.56;6176903;28;125242;-56
2021/03/23 07:33:41;;;;;;;;;37.25;32.00;;;;;11.49;35.03;99016.31;6175084;28;126274;-57
2021/03/23 07:36:49;;;;;;;;;37.60;31.60;;;;;11.59;34.96;99005.81;6156982;28;125963;-57
2021/03/23 07:40:00;;;;;;;;;34.60;30.00;;;;;11.67;34.82;99019.88;6154985;28;127135;-57
2021/03/23 07:43:47;;;;;;;;;34.00;31.00;;;;;11.77;34.85;99013.13;6161563;28;124634;-56
2021/03/23 07:46:57;;;;;;;;;34.00;31.00;;;;;11.84;34.92;99027.38;6154464;28;124559;-57
2021/03/23 07:50:05;;;;;;;;;36.00;32.00;;;;;11.83;34.09;99020.31;6172375;28;125290;-56
2021/03/23 07:53:23;;;;;;;;;39.20;32.20;;;;;11.94;34.31;99014.97;6165283;28;126218;-56
2021/03/23 07:57:11;;;;;;;;;32.40;30.00;;;;;12.02;34.19;99013.88;6181675;28;125887;-56
2021/03/23 08:00:54;;;;;;;;;31.00;29.00;;;;;12.23;33.63;99010.66;6157741;28;126028;-56
2021/03/23 08:04:01;;;;;;;;;31.40;29.60;;;;;12.36;33.31;99007.78;6161421;28;127225;-57
2021/03/23 08:07:14;;;;;;;;;31.00;29.00;;;;;12.45;33.31;99016.38;6160986;28;125967;-57
2021/03/23 08:10:27;;;;;;;;;32.00;29.60;;;;;12.57;33.20;99009.94;6156194;28;124801;-56
2021/03/23 08:14:07;;;;;;;;;31.40;30.00;;;;;12.55;32.97;99013.94;6166185;28;125941;-57
2021/03/23 08:17:15;;;;;;;;;33.40;30.20;;;;;12.34;33.00;98999.06;6179663;28;126022;-57
2021/03/23 08:20:20;;;;;;;;;35.50;31.50;;;;;12.33;33.44;99020.91;6154455;28;126288;-57
2021/03/23 08:23:38;;;;;;;;;34.00;30.80;;;;;12.34;33.28;99014.44;6165161;28;126333;-56
2021/03/23 08:27:01;;;;;;;;;30.75;29.75;;;;;12.40;33.56;99014.38;6160114;28;125950;-57
2021/03/23 08:30:09;;;;;;;;;35.00;32.00;;;;;12.53;33.48;99010.63;6155845;28;126084;-56
2021/03/23 08:33:29;;;;;;;;;36.00;33.00;;;;;12.52;33.33;99006.28;6153908;28;126270;-57
2021/03/23 08:36:56;;;;;;;;;37.60;32.60;;;;;12.67;33.30;99016.66;6153619;28;124632;-56
2021/03/23 08:40:24;;;;;;;;;34.00;32.00;;;;;12.48;33.36;99011.31;6167143;28;124840;-56
2021/03/23 08:43:43;;;;;;;;;38.00;32.00;;;;;12.38;33.73;99012.94;6158945;28;126105;-56
2021/03/23 08:46:44;;;;;;;;;37.40;31.80;;;;;12.23;34.05;99012.53;6158505;28;126013;-56
2021/03/23 08:49:47;;;;;;;;;37.67;31.67;;;;;11.77;34.26;98975.31;6160723;28;127904;-56
2021/03/23 08:52:59;;;;;;;;;41.40;34.00;;;;;12.09;34.28;99025.41;6165177;28;126037;-56
2021/03/23 08:56:03;;;;;;;;;38.00;33.00;;;;;12.18;34.36;99023.19;6158512;28;126056;-57
2021/03/23 08:59:04;;;;;;;;;40.00;32.60;;;;;12.25;34.36;99023.94;6157227;28;125871;-56
2021/03/23 09:02:09;;;;;;;;;35.60;32.00;;;;;12.42;34.33;99020.34;6160758;28;126754;-56
2021/03/23 09:05:35;;;;;;;;;38.40;33.60;;;;;12.53;33.86;99014.16;6159253;28;128008;-56
2021/03/23 09:08:47;;;;;;;;;41.20;33.00;;;;;12.58;33.89;99021.56;6159298;28;124257;-57
2021/03/23 09:12:25;;;;;;;;;40.00;33.00;;;;;12.52;33.99;99027.91;6158809;28;126295;-57
2021/03/23 09:15:48;;;;;;;;;38.40;32.00;;;;;12.51;33.90;99027.06;6157816;28;127441;-56
2021/03/23 09:19:10;;;;;;;;;37.40;32.60;;;;;12.57;33.97;99033.44;6165972;28;125647;-56
2021/03/23 09:22:26;;;;;;;;;40.00;33.00;;;;;12.66;34.00;99031.25;6172339;28;127690;-56
2021/03/23 09:25:50;;;;;;;;;37.60;32.40;;;;;12.79;33.68;99018.34;6162580;28;127650;-56
2021/03/23 09:28:52;;;;;;;;;41.00;33.00;;;;;12.89;33.56;99010.47;6158351;28;127656;-56
2021/03/23 09:31:54;;;;;;;;;33.50;30.50;;;;;13.01;33.40;99019.41;6155254;28;126447;-57
2021/03/23 09:35:09;;;;;;;;;35.75;31.00;;;;;13.11;33.40;99018.88;6156335;28;125653;-56
2021/03/23 09:38:51;;;;;;;;;36.00;31.00;;;;;13.25;33.11;99014.03;6180562;28;127186;-56
2021/03/23 09:42:16;;;;;;;;;32.80;29.80;;;;;13.25;33.12;99004.03;6172136;28;125228;-57
2021/03/23 09:45:34;;;;;;;;;36.00;31.00;;;;;13.69;32.71;99005.28;6188204;28;126230;-57
2021/03/23 09:48:47;;;;;;;;;35.75;31.25;;;;;14.42;31.99;99010.00;6157643;28;124838;-56
2021/03/23 09:52:09;;;;;;;;;32.20;27.60;;;;;15.09;30.50;98964.75;6165612;28;127368;-57
2021/03/23 09:55:11;;;;;;;;;35.00;32.00;;;;;16.09;29.56;99003.56;6158164;28;127043;-56
2021/03/23 09:58:23;;;;;;;;;33.00;30.00;;;;;16.34;28.71;98993.78;6157912;28;127526;-56
2021/03/23 10:01:25;;;;;;;;;36.00;31.00;;;;;16.84;28.32;98981.78;6156690;28;126227;-56
2021/03/23 10:04:28;;;;;;;;;38.80;32.80;;;;;17.14;28.29;98990.19;6165660;28;125001;-56
2021/03/23 10:07:40;;;;;;;;;37.00;30.40;;;;;17.44;27.46;98994.19;6179280;28;124744;-57
2021/03/23 10:10:42;;;;;;;;;32.40;30.00;;;;;17.42;27.50;98983.53;6162740;28;125996;-56
2021/03/23 10:13:55;;;;;;;;;31.00;29.60;;;;;17.05;27.72;98966.41;6163913;28;128002;-56
2021/03/23 10:17:11;;;;;;;;;30.00;27.80;;;;;16.70;28.43;98991.47;6174642;28;124026;-56
2021/03/23 10:20:18;;;;;;;;;33.25;30.00;;;;;16.29;28.82;98996.47;6170202;28;126886;-57
2021/03/23 10:23:22;;;;;;;;;31.40;29.40;;;;;16.02;29.59;98992.91;6157353;28;126212;-56
2021/03/23 10:26:46;;;;;;;;;32.25;29.25;;;;;15.84;30.03;98990.50;6163212;28;126081;-57
2021/03/23 10:30:02;;;;;;;;;31.60;28.60;;;;;15.75;30.30;98992.84;6167543;28;126994;-57
2021/03/23 10:33:20;;;;;;;;;28.00;26.00;;;;;15.44;30.44;98988.84;6167176;28;124838;-56
2021/03/23 10:36:40;;;;;;;;;31.75;27.75;;;;;15.29;31.00;98995.97;6157941;28;125225;-57
2021/03/23 10:39:42;;;;;;;;;31.00;28.00;;;;;15.17;31.43;98991.47;6161665;28;127193;-57
2021/03/23 10:42:52;;;;;;;;;31.40;28.20;;;;;15.06;31.64;98989.66;6160643;28;124980;-57
2021/03/23 10:45:54;;;;;;;;;28.00;26.00;;;;;14.73;32.01;98966.06;6165697;28;126111;-56
2021/03/23 10:49:12;;;;;;;;;27.60;26.60;;;;;14.98;32.29;98990.09;6155879;28;128020;-56
2021/03/23 10:52:17;;;;;;;;;32.25;28.25;;;;;14.95;32.28;98987.88;6154901;28;127010;-56
2021/03/23 10:55:33;;;;;;;;;29.50;26.50;;;;;14.92;32.21;98992.94;6178667;28;127180;-57
2021/03/23 10:58:38;;;;;;;;;25.00;23.50;;;;;15.00;32.37;98987.13;6152865;28;126206;-57
2021/03/23 11:02:19;;;;;;;;;30.00;26.25;;;;;15.10;32.32;98988.09;6152797;28;124787;-56
2021/03/23 11:05:23;;;;;;;;;25.20;21.20;;;;;15.27;32.25;98982.63;6173677;28;126410;-56
2021/03/23 11:08:24;;;;;;;;;26.80;23.80;;;;;15.20;32.13;98943.16;6163930;28;126429;-57
2021/03/23 11:11:26;;;;;;;;;22.00;20.00;;;;;15.72;31.83;98976.22;6155141;28;125771;-56
2021/03/23 11:14:28;;;;;;;;;24.40;21.40;;;;;16.00;31.43;98995.03;6158501;28;126891;-57
2021/03/23 11:17:30;;;;;;;;;23.00;20.00;;;;;15.96;31.30;98989.31;6164913;28;127002;-57
2021/03/23 11:20:38;;;;;;;;;22.00;21.00;;;;;16.44;30.95;98976.75;6175363;28;97594;-56
2021/03/23 11:23:46;;;;;;;;;22.40;20.00;;;;;16.69;30.74;98978.91;6155942;28;125879;-57
2021/03/23 11:26:47;;;;;;;;;23.00;20.50;;;;;16.74;30.72;98971.63;6159458;28;124707;-57
2021/03/23 11:29:49;;;;;;;;;17.80;16.80;;;;;16.70;30.36;98981.41;6168678;28;126638;-57
2021/03/23 11:32:50;;;;;;;;;19.00;18.00;;;;;16.70;30.50;98981.41;6159952;28;127271;-58
2021/03/23 11:35:52;;;;;;;;;17.25;15.00;;;;;16.64;30.28;98978.88;6156452;28;127246;-57
2021/03/23 11:38:56;;;;;;;;;17.00;13.40;;;;;16.38;30.42;98978.59;6156919;28;126463;-57
2021/03/23 11:42:03;;;;;;;;;16.00;15.00;;;;;16.43;30.55;98978.66;6158742;28;126595;-57
2021/03/23 11:45:17;;;;;;;;;20.60;18.00;;;;;16.31;30.88;98972.56;6170186;28;126028;-57
2021/03/23 11:48:20;;;;;;;;;15.80;14.00;;;;;16.24;30.93;98961.03;6167363;28;126051;-57
2021/03/23 11:51:24;;;;;;;;;17.00;14.00;;;;;16.32;31.01;98951.63;6156713;28;126265;-56
2021/03/23 11:54:26;;;;;;;;;17.25;15.50;;;;;16.72;30.39;98973.78;6167357;28;124294;-56
2021/03/23 11:57:28;;;;;;;;;14.00;14.00;;;;;16.92;30.40;98975.00;6156598;28;126442;-57
2021/03/23 12:00:31;;;;;;;;;16.60;16.00;;;;;16.77;30.32;98935.69;6156119;28;126436;-57
2021/03/23 12:03:34;;;;;;;;;16.80;14.00;;;;;16.75;30.34;98937.88;6172918;28;126650;-57
2021/03/23 12:06:52;;;;;;;;;16.00;15.00;;;;;16.95;30.49;98950.00;6172462;28;126198;-57
2021/03/23 12:10:03;;;;;;;;;14.60;14.60;;;;;17.32;29.61;98961.69;6169549;28;126705;-56
2021/03/23 12:13:19;;;;;;;;;14.00;12.00;;;;;17.20;29.47;98969.25;6178454;28;127131;-56
2021/03/23 12:16:37;;;;;;;;;14.00;12.50;;;;;17.27;29.20;98962.47;6183624;28;126109;-57
2021/03/23 12:19:59;;;;;;;;;15.00;13.00;;;;;17.23;29.15;98972.25;6160543;28;126056;-56
2021/03/23 12:23:09;;;;;;;;;13.00;10.00;;;;;16.95;29.18;98931.75;6160485;28;126070;-56
2021/03/23 12:26:11;;;;;;;;;11.75;10.75;;;;;17.02;29.21;98969.66;6161677;28;127517;-57
2021/03/23 12:29:12;;;;;;;;;14.00;13.00;;;;;17.01;29.43;98976.16;6166351;28;127861;-56
2021/03/23 12:32:16;;;;;;;;;10.00;9.00;;;;;16.64;28.68;98919.81;6170496;28;126479;-57
2021/03/23 12:35:22;;;;;;;;;10.00;9.00;;;;;17.03;30.66;98969.41;6160467;28;125195;-56
2021/03/23 12:38:24;;;;;;;;;11.00;10.60;;;;;17.15;29.18;98977.38;6158155;28;126095;-57
2021/03/23 12:41:30;;;;;;;;;10.00;10.00;;;;;17.03;28.62;98974.84;6159327;28;124807;-56
2021/03/23 12:44:32;;;;;;;;;11.00;9.60;;;;;16.98;28.29;98969.34;6159886;28;125992;-56
2021/03/23 12:47:34;;;;;;;;;10.20;9.00;;;;;16.83;28.41;98980.13;6160626;28;127670;-56
2021/03/23 12:50:36;;;;;;;;;10.00;10.00;;;;;16.61;28.87;98977.50;6160462;28;126849;-56
2021/03/23 12:53:38;;;;;;;;;12.60;11.00;;;;;16.44;29.19;98977.56;6159684;28;126203;-57
2021/03/23 12:56:40;;;;;;;;;12.20;10.00;;;;;16.24;29.45;98982.81;6170774;28;128253;-57
2021/03/23 12:59:41;;;;;;;;;28.00;25.50;;;;;16.10;32.01;98988.91;6163906;28;126687;-56
2021/03/23 13:02:43;;;;;;;;;28.00;27.40;;;;;15.95;33.37;98978.66;6159599;28;127574;-56
2021/03/23 13:05:47;;;;;;;;;35.00;32.00;;;;;15.58;34.23;98987.47;6164764;28;125323;-56
2021/03/23 13:08:49;;;;;;;;;37.00;32.00;;;;;15.18;35.04;98986.84;6183482;28;126055;-56
2021/03/23 13:11:52;;;;;;;;;36.75;32.00;;;;;14.96;35.23;98978.63;6167996;28;126538;-55
2021/03/23 13:14:54;;;;;;;;;34.00;30.00;;;;;14.85;35.76;98976.84;6183522;28;125908;-56
2021/03/23 13:17:56;;;;;;;;;38.60;32.00;;;;;14.50;36.48;98989.81;6178755;28;126399;-56
2021/03/23 13:21:00;;;;;;;;;34.33;30.00;;;;;14.27;36.97;98977.13;6157266;28;126684;-56
2021/03/23 13:24:10;;;;;;;;;35.40;30.60;;;;;14.14;37.16;98977.44;6158069;28;126291;-56
2021/03/23 13:27:21;;;;;;;;;36.50;30.00;;;;;14.08;37.36;98971.09;6159071;28;127034;-56
2021/03/23 13:30:33;;;;;;;;;33.00;30.00;;;;;13.97;37.76;98977.41;6156871;28;126073;-57
2021/03/23 13:33:37;;;;;;;;;35.00;31.00;;;;;13.99;37.67;98967.13;6156074;28;126215;-58
2021/03/23 13:36:50;;;;;;;;;37.20;32.00;;;;;13.99;38.72;98977.16;6160301;28;126765;-56
2021/03/23 13:39:56;;;;;;;;;36.40;30.00;;;;;14.16;37.86;98972.63;6155808;28;126384;-57
2021/03/23 13:43:04;;;;;;;;;34.20;30.00;;;;;14.12;37.11;98969.53;6154290;28;125654;-57
2021/03/23 13:46:09;;;;;;;;;34.00;31.00;;;;;14.08;37.41;98972.97;6156250;28;126211;-57
2021/03/23 13:49:13;;;;;;;;;32.60;30.00;;;;;14.09;37.62;98964.63;6156086;28;124874;-57
2021/03/23 13:52:23;;;;;;;;;33.00;30.00;;;;;14.17;37.42;98966.13;6156659;28;125612;-57
2021/03/23 13:55:28;;;;;;;;;30.00;28.00;;;;;14.23;36.75;98962.44;6156798;28;125069;-56
2021/03/23 13:58:30;;;;;;;;;29.25;28.00;;;;;14.26;36.48;98967.38;6162305;28;126901;-57
2021/03/23 14:01:33;;;;;;;;;31.00;28.00;;;;;14.28;36.23;98955.22;6165222;28;125449;-57
2021/03/23 14:04:34;;;;;;;;;32.00;28.50;;;;;14.27;36.93;98955.44;6156441;28;125173;-58
2021/03/23 14:07:39;;;;;;;;;39.40;32.40;;;;;14.19;37.85;98961.28;6156307;28;127245;-57
2021/03/23 14:10:45;;;;;;;;;31.50;27.00;;;;;14.08;38.29;98960.25;6157695;28;125623;-57
2021/03/23 14:13:46;;;;;;;;;38.67;33.00;;;;;14.07;38.29;98963.22;6158030;28;127166;-57
2021/03/23 14:16:48;;;;;;;;;38.00;33.25;;;;;14.00;38.39;98954.41;6156161;28;125399;-56
2021/03/23 14:19:51;;;;;;;;;35.00;32.00;;;;;13.77;38.48;98922.81;6155789;28;125376;-57